Time;durP1;ratioP1;P1;durP2;ratioP2;P2;SDS_P1;SDS_P2;PMS_P1;PMS_P2;Temp;Humidity;BMP_temperature;BMP_pressure;BME280_temperature;BME280_humidity;BME280_pressure;Samples;Min_cycle;Max_cycle;Signal;HPM_P1;HPM_P2
2023/04/04 00:00:52;;;;;;;7.38;3.03;;;;;;;-0.48;97.20;102973.88;4977646;28;20049;-92
2023/04/04 00:03:18;;;;;;;6.15;3.28;;;;;;;-0.36;97.08;102989.81;4978068;28;20030;-92
2023/04/04 00:05:44;;;;;;;6.85;3.40;;;;;;;-0.31;97.35;103003.69;4991032;28;20121;-91
2023/04/04 00:08:10;;;;;;;6.70;3.30;;;;;;;-0.45;96.94;102985.09;4976499;28;20076;-91
2023/04/04 00:10:35;;;;;;;8.27;3.70;;;;;;;-0.36;96.58;102999.13;4975577;28;20477;-91
2023/04/04 00:13:01;;;;;;;9.55;3.78;;;;;;;-0.36;95.37;103005.13;4978493;28;20034;-92
2023/04/04 00:15:27;;;;;;;8.60;3.67;;;;;;;-0.35;97.52;103004.31;4975570;28;20030;-92
2023/04/04 00:17:53;;;;;;;9.13;3.67;;;;;;;-0.34;96.44;103002.66;4976943;28;20030;-91
2023/04/04 00:20:18;;;;;;;6.55;3.25;;;;;;;-0.36;97.42;102994.91;4991578;28;20044;-92
2023/04/04 00:22:44;;;;;;;8.40;3.60;;;;;;;-0.41;96.72;102981.06;4977300;28;20741;-92
2023/04/04 00:25:09;;;;;;;8.15;3.63;;;;;;;-0.25;95.80;103001.47;4977871;28;20073;-92
2023/04/04 00:27:35;;;;;;;8.20;3.22;;;;;;;-0.20;94.14;102988.97;4977951;28;20045;-91
2023/04/04 00:30:01;;;;;;;7.28;3.10;;;;;;;-0.20;93.85;102988.97;4976134;28;20065;-91
2023/04/04 00:32:26;;;;;;;8.57;3.60;;;;;;;-0.08;95.67;103007.50;4976950;28;20030;-92
2023/04/04 00:34:52;;;;;;;5.82;3.13;;;;;;;-0.04;93.67;103012.84;4991976;28;20245;-91
2023/04/04 00:37:18;;;;;;;6.85;3.30;;;;;;;-0.10;92.76;102988.69;4977110;28;20034;-90
2023/04/04 00:39:43;;;;;;;7.30;3.13;;;;;;;-0.03;92.06;102991.66;4976105;28;20034;-91
2023/04/04 00:42:09;;;;;;;8.07;3.35;;;;;;;-0.07;93.31;102973.56;4974505;28;20121;-91
2023/04/04 00:44:35;;;;;;;7.78;3.60;;;;;;;-0.02;94.43;102980.66;4974701;28;20014;-91
2023/04/04 00:47:01;;;;;;;8.63;3.65;;;;;;;0.00;94.83;102999.44;4974595;28;20053;-92
2023/04/04 00:49:26;;;;;;;8.27;3.55;;;;;;;-0.09;95.02;102987.91;4976489;28;20111;-92
2023/04/04 00:51:53;;;;;;;7.50;3.40;;;;;;;-0.14;93.81;102995.31;4958090;28;20214;-91
2023/04/04 00:54:19;;;;;;;7.45;3.65;;;;;;;-0.28;95.37;102983.50;4976825;28;20398;-91
2023/04/04 00:56:45;;;;;;;6.80;3.42;;;;;;;-0.19;95.32;102990.72;4975485;28;20479;-92
2023/04/04 00:59:12;;;;;;;8.10;3.78;;;;;;;-0.24;96.09;102993.03;4975393;28;20050;-91
2023/04/04 01:01:37;;;;;;;8.43;3.67;;;;;;;-0.27;95.63;102987.75;4962020;28;20030;-91
2023/04/04 01:04:03;;;;;;;7.03;3.63;;;;;;;-0.36;96.07;102989.81;4961222;28;20019;-92
2023/04/04 01:06:31;;;;;;;8.02;3.70;;;;;;;-0.46;96.67;102974.81;4977063;28;20066;-92
2023/04/04 01:08:57;;;;;;;7.63;3.45;;;;;;;-0.37;96.73;103000.81;4976903;28;20042;-92
2023/04/04 01:11:24;;;;;;;6.68;3.50;;;;;;;-0.42;97.15;102994.59;4962706;28;20109;-91
2023/04/04 01:13:51;;;;;;;5.78;3.22;;;;;;;-0.50;97.35;102978.88;4974956;28;20042;-92
2023/04/04 01:16:16;;;;;;;7.63;3.60;;;;;;;-0.53;97.67;102982.91;4975918;28;20042;-92
2023/04/04 01:18:43;;;;;;;7.57;3.63;;;;;;;-0.67;98.12;102956.66;4990606;28;20675;-91
2023/04/04 01:21:15;;;;;;;8.00;3.78;;;;;;;-0.70;98.84;102958.19;4976961;28;20037;-91
2023/04/04 01:24:03;;;;;;;6.13;3.42;;;;;;;-0.61;97.33;102982.47;4979158;28;20470;-91
2023/04/04 01:26:29;;;;;;;8.02;3.42;;;;;;;-0.63;98.33;102981.53;4966771;28;20022;-92
2023/04/04 01:28:58;;;;;;;8.38;3.65;;;;;;;-0.73;99.16;102965.63;4981014;28;20032;-91
2023/04/04 01:31:36;;;;;;;6.80;3.80;;;;;;;-0.75;98.48;102969.78;4976425;28;20073;-91
2023/04/04 01:34:16;;;;;;;8.70;3.53;;;;;;;-0.73;99.11;102986.88;4978405;28;20050;-91
2023/04/04 01:36:52;;;;;;;9.15;3.63;;;;;;;-0.86;99.34;102970.03;4966657;28;20168;-91
2023/04/04 01:39:31;;;;;;;8.75;4.10;;;;;;;-0.90;98.52;102970.66;4962594;28;20030;-91
2023/04/04 01:42:00;;;;;;;7.78;3.53;;;;;;;-0.95;99.53;102964.41;4978314;28;20030;-91
2023/04/04 01:44:25;;;;;;;8.40;3.80;;;;;;;-0.99;100.00;102965.03;4978262;28;20027;-92
2023/04/04 01:46:54;;;;;;;10.60;4.25;;;;;;;-1.03;100.00;102963.13;4979578;28;20034;-92
2023/04/04 01:49:21;;;;;;;6.93;4.03;;;;;;;-1.04;100.00;102960.50;4995118;28;20035;-91
2023/04/04 01:51:48;;;;;;;9.82;3.88;;;;;;;-1.14;100.00;102946.34;4967496;28;20023;-91
2023/04/04 01:54:14;;;;;;;8.05;4.00;;;;;;;-1.02;100.00;102959.75;4978642;28;20030;-91
2023/04/04 01:56:39;;;;;;;6.75;3.63;;;;;;;-1.10;100.00;102948.31;4980085;28;20144;-91
2023/04/04 01:59:04;;;;;;;6.22;3.50;;;;;;;-1.07;100.00;102953.53;4980814;28;20057;-91
2023/04/04 02:01:32;;;;;;;6.63;3.50;;;;;;;-1.13;100.00;102948.09;4994221;28;20151;-90
2023/04/04 02:03:57;;;;;;;7.85;3.97;;;;;;;-1.22;100.00;102943.34;4979320;28;20064;-91
2023/04/04 02:06:23;;;;;;;7.15;3.72;;;;;;;-1.14;100.00;102953.97;4966841;28;20066;-91
2023/04/04 02:08:48;;;;;;;8.52;4.25;;;;;;;-1.02;100.00;102969.06;4979184;28;20050;-91
2023/04/04 02:11:14;;;;;;;8.20;3.67;;;;;;;-0.95;100.00;102969.50;4978330;28;20034;-92
2023/04/04 02:13:43;;;;;;;7.57;3.58;;;;;;;-0.94;99.96;102965.28;4977496;28;20042;-92
2023/04/04 02:16:09;;;;;;;8.52;3.60;;;;;;;-0.91;99.83;102973.13;4964738;28;20038;-91
2023/04/04 02:18:35;;;;;;;9.23;4.25;;;;;;;-0.93;100.00;102957.75;4979386;28;20040;-91
2023/04/04 02:21:00;;;;;;;8.25;3.78;;;;;;;-0.99;100.00;102957.41;4976972;28;20073;-92
2023/04/04 02:23:25;;;;;;;9.75;3.70;;;;;;;-1.04;100.00;102947.75;4978892;28;20109;-92
2023/04/04 02:25:51;;;;;;;7.72;3.70;;;;;;;-0.94;100.00;102973.81;4961663;28;20045;-92
2023/04/04 02:28:16;;;;;;;7.93;3.60;;;;;;;-1.00;99.20;102967.50;4977874;28;20038;-91
2023/04/04 02:30:42;;;;;;;8.82;4.30;;;;;;;-0.90;100.00;102980.84;4978524;28;20041;-91
2023/04/04 02:33:07;;;;;;;8.10;3.95;;;;;;;-0.90;98.75;102975.75;4978771;28;20513;-91
2023/04/04 02:35:33;;;;;;;10.43;4.25;;;;;;;-0.72;99.46;103000.50;4965861;28;20037;-91
2023/04/04 02:37:58;;;;;;;8.05;3.70;;;;;;;-0.70;98.95;102988.75;4977545;28;20026;-91
2023/04/04 02:40:24;;;;;;;7.47;3.70;;;;;;;-0.76;97.51;102970.56;4978238;28;20522;-92
2023/04/04 02:42:49;;;;;;;8.07;3.63;;;;;;;-0.64;96.47;102984.88;4978696;28;20251;-92
2023/04/04 02:45:15;;;;;;;10.52;3.85;;;;;;;-0.70;97.74;102968.38;4958711;28;20022;-91
2023/04/04 02:47:41;;;;;;;6.93;3.70;;;;;;;-0.74;98.03;102958.78;4964582;28;20093;-91
2023/04/04 02:50:08;;;;;;;8.52;3.65;;;;;;;-0.68;98.44;102965.09;4967000;28;20037;-92
2023/04/04 02:52:34;;;;;;;8.25;3.75;;;;;;;-0.78;98.53;102954.31;4994254;28;20588;-92
2023/04/04 02:54:59;;;;;;;12.50;3.95;;;;;;;-0.82;98.33;102966.03;4961272;28;20752;-91
2023/04/04 02:57:24;;;;;;;10.15;4.10;;;;;;;-0.90;98.55;102970.66;4980479;28;20027;-91
2023/04/04 02:59:50;;;;;;;8.13;3.70;;;;;;;-0.83;99.11;102974.44;4994278;28;20030;-91
2023/04/04 03:02:16;;;;;;;9.15;3.83;;;;;;;-0.88;99.16;102963.09;4977849;28;20041;-91
2023/04/04 03:04:41;;;;;;;8.43;4.00;;;;;;;-1.00;99.27;102948.03;4976170;28;20045;-91
2023/04/04 03:07:07;;;;;;;8.55;4.38;;;;;;;-0.94;99.85;102966.19;4976667;28;20018;-91
2023/04/04 03:09:32;;;;;;;10.88;3.95;;;;;;;-0.95;99.99;102966.09;4964099;28;21030;-91
2023/04/04 03:11:59;;;;;;;8.02;4.22;;;;;;;-1.05;99.69;102962.16;4977217;28;20498;-91
2023/04/04 03:14:25;;;;;;;9.25;4.03;;;;;;;-0.99;99.88;102967.59;4978144;28;20077;-91
2023/04/04 03:16:52;;;;;;;9.85;4.43;;;;;;;-1.07;100.00;102958.63;4993146;28;20022;-91
2023/04/04 03:19:18;;;;;;;7.07;3.88;;;;;;;-1.07;100.00;102953.53;4977635;28;20034;-91
2023/04/04 03:21:43;;;;;;;8.55;3.78;;;;;;;-0.99;100.00;102970.13;4977388;28;20037;-91
2023/04/04 03:24:09;;;;;;;9.07;3.95;;;;;;;-1.06;99.35;102962.94;4978043;28;20026;-91
2023/04/04 03:26:34;;;;;;;8.90;4.18;;;;;;;-1.03;99.13;102972.44;4992728;28;20121;-91
2023/04/04 03:29:03;;;;;;;9.52;3.97;;;;;;;-1.12;99.29;102959.16;4978605;28;20999;-88
2023/04/04 03:31:31;;;;;;;7.20;4.03;;;;;;;-1.13;100.00;102965.03;4977089;28;20061;-87
2023/04/04 03:33:59;;;;;;;9.05;4.18;;;;;;;-1.10;100.00;102963.56;4975289;28;20102;-88
2023/04/04 03:36:25;;;;;;;9.93;4.32;;;;;;;-1.23;99.67;102944.16;4975703;28;20459;-88
2023/04/04 03:38:50;;;;;;;8.10;4.60;;;;;;;-1.30;100.00;102938.63;4976687;28;20518;-88
2023/04/04 03:41:16;;;;;;;7.65;4.20;;;;;;;-1.32;100.00;102946.19;4976823;28;20113;-88
2023/04/04 03:43:41;;;;;;;10.30;4.03;;;;;;;-1.30;100.00;102959.00;4976842;28;20028;-88
2023/04/04 03:46:07;;;;;;;11.13;4.20;;;;;;;-1.39;100.00;102951.69;4977006;28;20476;-88
2023/04/04 03:48:33;;;;;;;10.50;4.18;;;;;;;-1.51;99.74;102937.38;4977411;28;20038;-88
2023/04/04 03:50:59;;;;;;;7.60;4.20;;;;;;;-1.49;100.00;102951.03;4977651;28;20026;-87
2023/04/04 03:53:28;;;;;;;10.77;4.75;;;;;;;-1.54;100.00;102950.78;4976634;28;20030;-87
2023/04/04 03:55:55;;;;;;;11.27;4.55;;;;;;;-1.56;100.00;102954.00;4976801;28;20052;-88
2023/04/04 03:58:21;;;;;;;8.90;4.97;;;;;;;-1.66;100.00;102943.31;4974314;28;20022;-88
2023/04/04 04:00:47;;;;;;;14.23;4.47;;;;;;;-1.67;100.00;102951.72;4977581;28;20121;-87
2023/04/04 04:03:12;;;;;;;10.02;4.60;;;;;;;-1.68;100.00;102944.00;4977032;28;20105;-88
2023/04/04 04:05:38;;;;;;;8.18;4.47;;;;;;;-1.70;100.00;102941.34;4992019;28;20506;-87
2023/04/04 04:08:04;;;;;;;9.98;4.70;;;;;;;-1.63;100.00;102953.66;4977241;28;20083;-88
2023/04/04 04:10:29;;;;;;;10.60;4.97;;;;;;;-1.73;100.00;102936.09;4976998;28;20109;-91
2023/04/04 04:12:55;;;;;;;8.35;4.55;;;;;;;-1.70;100.00;102946.44;4975592;28;20565;-92
2023/04/04 04:15:21;;;;;;;10.15;4.80;;;;;;;-1.70;100.00;102945.56;4964274;28;20022;-91
2023/04/04 04:17:47;;;;;;;11.07;5.30;;;;;;;-1.67;100.00;102958.47;4977338;28;20026;-92
2023/04/04 04:20:15;;;;;;;8.50;4.60;;;;;;;-1.74;100.00;102943.63;4977859;28;20040;-91
2023/04/04 04:22:46;;;;;;;8.60;4.40;;;;;;;-1.67;100.00;102949.19;4974921;28;20517;-91
2023/04/04 04:25:15;;;;;;;7.82;4.70;;;;;;;-1.69;100.00;102937.16;4977955;28;20089;-90
2023/04/04 04:27:41;;;;;;;8.82;4.80;;;;;;;-1.76;100.00;102938.47;4976249;28;20514;-91
2023/04/04 04:30:07;;;;;;;12.57;5.07;;;;;;;-1.75;100.00;102947.84;4976812;28;20026;-91
2023/04/04 04:32:33;;;;;;;8.60;4.72;;;;;;;-1.78;100.00;102941.72;4975172;28;20030;-91
2023/04/04 04:34:59;;;;;;;9.77;4.85;;;;;;;-1.79;100.00;102943.38;4977470;28;20073;-91
2023/04/04 04:37:25;;;;;;;9.43;4.90;;;;;;;-1.83;100.00;102948.16;4976677;28;20109;-91
2023/04/04 04:39:51;;;;;;;8.88;5.03;;;;;;;-1.85;100.00;102942.13;4976996;28;20058;-91
2023/04/04 04:42:17;;;;;;;11.50;5.13;;;;;;;-1.85;100.00;102939.59;4977463;28;20034;-91
2023/04/04 04:44:43;;;;;;;8.77;4.47;;;;;;;-1.88;100.00;102941.94;4977740;28;20037;-91
2023/04/04 04:47:08;;;;;;;9.85;4.93;;;;;;;-1.90;100.00;102941.81;4978223;28;20427;-91
2023/04/04 04:49:34;;;;;;;9.10;5.18;;;;;;;-1.87;100.00;102951.31;4976970;28;20035;-91
2023/04/04 04:52:00;;;;;;;9.50;4.85;;;;;;;-1.90;100.00;102951.13;4957366;28;20042;-91
2023/04/04 04:54:25;;;;;;;10.13;5.18;;;;;;;-1.89;100.00;102955.41;4963783;28;20040;-90
2023/04/04 04:56:51;;;;;;;10.27;5.75;;;;;;;-1.89;100.00;102952.88;4980427;28;20031;-91
2023/04/04 04:59:16;;;;;;;9.73;4.95;;;;;;;-1.81;100.00;102957.63;4981362;28;20015;-91
2023/04/04 05:01:42;;;;;;;7.13;4.45;;;;;;;-1.84;100.00;102957.44;4981048;28;20026;-90
2023/04/04 05:04:07;;;;;;;9.77;5.00;;;;;;;-1.85;100.00;102960.78;4979768;28;20037;-91
2023/04/04 05:06:33;;;;;;;9.25;4.82;;;;;;;-1.97;100.00;102949.88;4980872;28;20042;-91
2023/04/04 05:08:58;;;;;;;9.68;5.10;;;;;;;-1.90;100.00;102962.16;4980049;28;20418;-91
2023/04/04 05:11:25;;;;;;;10.65;5.13;;;;;;;-1.94;100.00;102955.16;4979574;28;20501;-91
2023/04/04 05:13:50;;;;;;;10.55;5.47;;;;;;;-2.00;100.00;102957.31;4980138;28;20081;-91
2023/04/04 05:16:16;;;;;;;11.48;5.10;;;;;;;-1.94;100.00;102965.31;4967026;28;20125;-91
2023/04/04 05:18:45;;;;;;;9.10;5.32;;;;;;;-1.95;100.00;102965.22;4981177;28;20475;-91
2023/04/04 05:21:11;;;;;;;9.30;5.05;;;;;;;-1.94;100.00;102969.50;4978050;28;20026;-91
2023/04/04 05:23:36;;;;;;;10.10;5.40;;;;;;;-1.95;100.00;102965.22;4994516;28;20037;-91
2023/04/04 05:26:02;;;;;;;10.55;5.50;;;;;;;-1.90;100.00;102969.78;4994539;28;20033;-91
2023/04/04 05:28:27;;;;;;;9.45;5.65;;;;;;;-1.87;100.00;102966.56;4980183;28;20036;-90
2023/04/04 05:30:53;;;;;;;14.98;5.80;;;;;;;-1.86;100.00;102951.41;4981823;28;20160;-91
2023/04/04 05:33:18;;;;;;;10.40;5.47;;;;;;;-1.79;100.00;102963.69;4993532;28;20027;-91
2023/04/04 05:35:44;;;;;;;12.20;6.20;;;;;;;-1.76;100.00;102979.13;4979300;28;20037;-91
2023/04/04 05:38:10;;;;;;;11.23;5.72;;;;;;;-1.72;100.00;102972.56;4965132;28;20378;-91
2023/04/04 05:40:35;;;;;;;10.18;6.10;;;;;;;-1.65;100.00;102985.75;4979140;28;20244;-91
2023/04/04 05:43:03;;;;;;;13.00;6.40;;;;;;;-1.54;100.00;102980.41;4961008;28;20086;-91
2023/04/04 05:45:30;;;;;;;12.98;6.35;;;;;;;-1.42;100.00;102988.75;4965079;28;20526;-90
2023/04/04 05:47:55;;;;;;;9.82;6.15;;;;;;;-1.33;100.00;102980.03;4978585;28;20112;-91
2023/04/04 05:50:21;;;;;;;9.90;6.30;;;;;;;-1.27;100.00;102962.56;4980342;28;20027;-90
2023/04/04 05:52:46;;;;;;;15.45;6.68;;;;;;;-1.07;100.00;102960.28;4980233;28;20037;-90
2023/04/04 05:55:11;;;;;;;12.77;6.43;;;;;;;-0.63;100.00;102978.09;4978301;28;20026;-90
2023/04/04 05:57:37;;;;;;;13.68;6.25;;;;;;;-0.37;100.00;102979.53;4993576;28;20403;-91
2023/04/04 06:00:08;;;;;;;14.57;5.85;;;;;;;-0.37;100.00;102970.22;4980193;28;20060;-90
2023/04/04 06:02:33;;;;;;;13.40;6.38;;;;;;;-0.31;100.00;102984.97;4979064;28;20367;-90
2023/04/04 06:04:59;;;;;;;11.23;6.18;;;;;;;-0.29;100.00;102984.28;4979606;28;20032;-90
2023/04/04 06:07:25;;;;;;;11.88;6.47;;;;;;;-0.27;100.00;102980.13;4976895;28;20667;-90
2023/04/04 06:09:50;;;;;;;10.57;6.30;;;;;;;-0.30;100.00;102969.78;4960476;28;20042;-90
2023/04/04 06:12:15;;;;;;;12.85;6.80;;;;;;;-0.20;99.46;102982.19;4978749;28;20037;-91
2023/04/04 06:14:41;;;;;;;12.82;7.10;;;;;;;-0.18;99.46;102970.44;4965329;28;20035;-90
2023/04/04 06:17:07;;;;;;;12.48;6.80;;;;;;;0.05;99.67;102976.78;4966137;28;20051;-90
2023/04/04 06:19:32;;;;;;;13.50;7.10;;;;;;;0.29;98.45;102979.72;4979320;28;20022;-90
2023/04/04 06:21:57;;;;;;;13.55;6.75;;;;;;;0.48;98.50;102979.88;4975503;28;20052;-91
2023/04/04 06:24:23;;;;;;;15.10;7.00;;;;;;;0.58;96.40;102986.34;4977102;28;20034;-91
2023/04/04 06:26:50;;;;;;;13.07;6.70;;;;;;;0.66;95.19;102985.94;4966736;28;20026;-90
2023/04/04 06:29:18;;;;;;;12.68;7.32;;;;;;;1.14;95.02;102994.31;4977654;28;20027;-90
2023/04/04 06:31:44;;;;;;;15.88;6.90;;;;;;;1.83;93.57;102986.56;4976582;28;20118;-90
2023/04/04 06:34:09;;;;;;;12.10;7.18;;;;;;;2.72;88.24;102965.81;4978554;28;20116;-90
2023/04/04 06:36:35;;;;;;;12.85;6.32;;;;;;;3.77;83.25;102973.47;4977508;28;20031;-90
2023/04/04 06:39:01;;;;;;;14.68;6.38;;;;;;;4.38;76.89;102974.06;4976860;28;20076;-90
2023/04/04 06:41:26;;;;;;;12.82;5.93;;;;;;;4.85;77.11;102984.22;4977153;28;20074;-90
2023/04/04 06:43:52;;;;;;;11.02;5.78;;;;;;;4.72;75.24;102978.69;4993991;28;20041;-90
2023/04/04 06:46:17;;;;;;;9.43;6.15;;;;;;;4.36;74.30;102979.97;4993013;28;20087;-90
2023/04/04 06:48:43;;;;;;;10.27;5.90;;;;;;;4.14;73.99;102970.63;4961233;28;20034;-91
2023/04/04 06:51:10;;;;;;;11.45;6.18;;;;;;;4.16;78.12;102989.47;4976475;28;20026;-91
2023/04/04 06:53:36;;;;;;;13.90;6.05;;;;;;;4.21;77.41;102980.28;4976673;28;20437;-91
2023/04/04 06:56:02;;;;;;;9.32;5.90;;;;;;;4.35;79.52;102981.66;4977315;28;20604;-91
2023/04/04 06:58:27;;;;;;;12.65;6.43;;;;;;;4.94;80.20;102989.69;4976466;28;20073;-90
2023/04/04 07:00:53;;;;;;;11.68;6.25;;;;;;;5.29;73.11;102986.59;4977773;28;20049;-91
2023/04/04 07:03:19;;;;;;;10.88;6.28;;;;;;;5.52;74.92;102983.06;4976117;28;20042;-91
2023/04/04 07:05:45;;;;;;;9.27;5.80;;;;;;;5.74;68.94;102989.72;4979620;28;20697;-90
2023/04/04 07:08:11;;;;;;;10.05;6.10;;;;;;;5.70;67.17;103002.47;4960790;28;20129;-90
2023/04/04 07:10:36;;;;;;;11.80;6.40;;;;;;;5.84;69.56;102999.50;4979268;28;20030;-91
2023/04/04 07:13:04;;;;;;;10.73;6.53;;;;;;;5.92;65.15;102995.47;4978648;28;20058;-91
2023/04/04 07:15:29;;;;;;;9.50;6.13;;;;;;;5.80;64.66;102981.34;4993034;28;20661;-91
2023/04/04 07:17:55;;;;;;;11.20;6.65;;;;;;;5.97;69.43;102993.03;4993516;28;20122;-91
2023/04/04 07:20:21;;;;;;;11.18;6.10;;;;;;;6.58;70.46;102981.88;4993098;28;20064;-91
2023/04/04 07:22:47;;;;;;;8.98;5.82;;;;;;;7.08;64.82;102988.38;4977312;28;20462;-90
2023/04/04 07:25:13;;;;;;;9.00;5.63;;;;;;;6.77;62.97;102993.56;4965803;28;20080;-91
2023/04/04 07:27:39;;;;;;;10.57;5.82;;;;;;;6.21;63.62;102977.44;4965932;28;20038;-91
2023/04/04 07:30:06;;;;;;;14.65;5.95;;;;;;;6.19;64.09;102984.25;4976690;28;20115;-88
2023/04/04 07:32:31;;;;;;;10.52;5.97;;;;;;;6.26;67.33;102984.47;4980471;28;20069;-89
2023/04/04 07:34:57;;;;;;;10.52;6.45;;;;;;;6.01;63.41;102976.84;4978936;28;20022;-88
2023/04/04 07:37:22;;;;;;;12.57;6.95;;;;;;;5.85;67.78;102975.50;4993189;28;20030;-89
2023/04/04 07:39:48;;;;;;;10.90;6.55;;;;;;;5.95;65.70;102984.38;4977920;28;20106;-89
2023/04/04 07:42:15;;;;;;;10.68;5.95;;;;;;;5.87;69.16;102979.00;4977705;28;20031;-88
2023/04/04 07:44:40;;;;;;;9.15;5.50;;;;;;;5.80;66.96;102979.63;4977199;28;20466;-89
2023/04/04 07:47:06;;;;;;;11.63;5.97;;;;;;;5.63;65.38;102985.09;4960279;28;20061;-89
2023/04/04 07:49:31;;;;;;;10.38;5.40;;;;;;;5.59;65.36;102978.13;4978553;28;20498;-89
2023/04/04 07:51:57;;;;;;;9.73;5.75;;;;;;;5.97;66.55;102989.59;4965282;28;20448;-89
2023/04/04 07:54:23;;;;;;;11.65;5.53;;;;;;;6.78;62.53;102979.84;4977650;28;20042;-89
2023/04/04 07:56:52;;;;;;;8.43;4.97;;;;;;;8.25;61.52;102975.56;4976371;28;20027;-89
2023/04/04 07:59:17;;;;;;;8.45;5.40;;;;;;;8.92;57.08;102961.31;4977341;28;20031;-92
2023/04/04 08:01:43;;;;;;;7.95;4.80;;;;;;;8.73;54.31;102966.16;4977218;28;20084;-92
2023/04/04 08:04:08;;;;;;;9.45;5.47;;;;;;;8.47;55.52;102964.81;4964554;28;20022;-92
2023/04/04 08:06:35;;;;;;;7.75;4.80;;;;;;;8.40;53.68;102981.03;4977099;28;20486;-92
2023/04/04 08:09:01;;;;;;;9.95;4.82;;;;;;;8.43;53.67;102970.78;4977846;28;20046;-91
2023/04/04 08:11:26;;;;;;;8.75;4.70;;;;;;;8.60;53.64;102984.00;4977115;28;20498;-91
2023/04/04 08:13:52;;;;;;;10.88;5.20;;;;;;;8.54;56.25;102966.66;4977669;28;20465;-91
2023/04/04 08:16:17;;;;;;;10.00;5.13;;;;;;;8.98;56.70;102974.34;4975482;28;20049;-91
2023/04/04 08:18:43;;;;;;;8.10;4.97;;;;;;;9.68;52.71;102973.75;4976161;28;20065;-92
2023/04/04 08:21:08;;;;;;;9.32;4.88;;;;;;;10.39;50.84;102975.53;4978425;28;20308;-91
2023/04/04 08:23:34;;;;;;;8.60;4.90;;;;;;;10.91;53.18;102977.81;4977450;28;20162;-92
2023/04/04 08:26:00;;;;;;;13.77;5.38;;;;;;;12.05;49.10;102980.34;4977817;28;20026;-93
2023/04/04 08:28:29;;;;;;;10.85;4.85;;;;;;;12.94;44.23;102970.19;4976430;28;20061;-92
2023/04/04 08:30:54;;;;;;;10.63;4.53;;;;;;;13.51;43.42;102968.41;4980805;28;20037;-92
2023/04/04 08:33:23;;;;;;;8.30;4.18;;;;;;;13.37;44.44;102958.03;4969297;28;20042;-92
2023/04/04 08:35:49;;;;;;;6.80;3.65;;;;;;;12.99;40.80;102970.16;4981375;28;20072;-92
2023/04/04 08:38:14;;;;;;;7.10;4.20;;;;;;;12.52;43.98;102955.38;4969653;28;20018;-92
2023/04/04 08:40:46;;;;;;;9.48;4.00;;;;;;;12.26;44.32;102962.25;4996320;28;20108;-92
2023/04/04 08:43:14;;;;;;;6.95;3.63;;;;;;;11.51;42.77;102962.69;4981244;28;20030;-92
2023/04/04 08:45:42;;;;;;;8.23;3.65;;;;;;;11.26;43.45;102952.13;4969733;28;20038;-93
2023/04/04 08:48:16;;;;;;;7.55;3.70;;;;;;;11.24;42.49;102964.25;4968587;28;20030;-92
2023/04/04 08:50:42;;;;;;;6.15;3.13;;;;;;;11.35;41.65;102965.19;4980726;28;20690;-92
2023/04/04 08:53:09;;;;;;;5.53;3.22;;;;;;;11.33;43.07;102963.41;4981316;28;20023;-92
2023/04/04 08:55:41;;;;;;;7.40;3.05;;;;;;;11.45;41.13;102960.94;4980079;28;20051;-94
2023/04/04 08:58:08;;;;;;;9.20;2.95;;;;;;;11.30;40.90;102955.63;4966907;28;20066;-94
2023/04/04 09:00:33;;;;;;;6.32;3.20;;;;;;;11.33;42.49;102947.84;4969777;28;20439;-92
2023/04/04 09:03:05;;;;;;;6.40;2.90;;;;;;;11.57;40.86;102967.94;4996950;28;20570;-93
2023/04/04 09:05:31;;;;;;;5.93;2.70;;;;;;;12.36;41.06;102947.50;4965996;28;20126;-93
2023/04/04 09:07:58;;;;;;;5.93;2.58;;;;;;;13.03;37.51;102958.91;4981011;28;20089;-93
2023/04/04 09:10:23;;;;;;;5.07;2.60;;;;;;;13.64;38.04;102951.06;4970469;28;20096;-93
2023/04/04 09:12:51;;;;;;;6.13;2.65;;;;;;;14.05;35.10;102943.94;4982186;28;20026;-94
2023/04/04 09:15:17;;;;;;;7.65;2.80;;;;;;;13.96;34.74;102946.59;4980913;28;20022;-93
2023/04/04 09:17:42;;;;;;;5.95;2.80;;;;;;;13.35;36.08;102941.53;4968883;28;20100;-94
2023/04/04 09:20:42;;;;;;;5.47;2.95;;;;;;;12.61;39.89;102967.53;4983581;28;20023;-93
2023/04/04 09:23:11;;;;;;;6.22;3.10;;;;;;;11.68;38.29;102954.13;4980044;28;20054;-93
2023/04/04 09:25:37;;;;;;;6.93;3.20;;;;;;;11.03;39.49;102949.38;4963021;28;20093;-94
2023/04/04 09:28:04;;;;;;;7.43;2.65;;;;;;;10.60;40.33;102958.47;4980560;28;20138;-94
2023/04/04 09:30:34;;;;;;;6.20;2.60;;;;;;;10.30;42.60;102942.63;4963528;28;20052;-94
2023/04/04 09:33:08;;;;;;;5.25;2.53;;;;;;;10.10;42.06;102949.25;4981481;28;20064;-92
2023/04/04 09:35:36;;;;;;;;;;;;;;;10.03;44.18;102963.81;4981135;28;20045;-93
2023/04/04 09:38:02;;;;;;;5.50;2.75;;;;;;;9.42;41.20;102952.63;4968665;28;19928;-93
2023/04/04 09:40:29;;;;;;;7.20;2.90;;;;;;;8.96;43.73;102957.94;4968185;28;20084;-93
2023/04/04 09:42:58;;;;;;;6.65;2.72;;;;;;;8.79;43.82;102949.03;4977913;28;20491;-92
2023/04/04 09:45:26;;;;;;;7.47;2.80;;;;;;;8.65;43.61;102954.81;4979194;28;20474;-93
2023/04/04 09:47:52;;;;;;;5.55;2.45;;;;;;;8.57;43.39;102966.72;4981034;28;20480;-93
2023/04/04 09:50:23;;;;;;;5.57;2.75;;;;;;;8.36;44.63;102953.41;4980449;28;20352;-93
2023/04/04 09:52:49;;;;;;;6.25;2.72;;;;;;;8.31;45.77;102967.94;4978969;28;20623;-92
2023/04/04 09:55:18;;;;;;;6.20;2.60;;;;;;;8.22;44.47;102947.06;4979799;28;20050;-92
2023/04/04 09:57:46;;;;;;;5.05;2.60;;;;;;;8.25;46.31;102948.00;4961376;28;20396;-92
2023/04/04 10:00:17;;;;;;;4.97;2.55;;;;;;;8.26;44.29;102941.09;4977283;28;20475;-92
2023/04/04 10:02:47;;;;;;;9.43;2.80;;;;;;;8.21;45.65;102950.47;4981229;28;20022;-93
2023/04/04 10:05:13;;;;;;;7.40;3.17;;;;;;;8.22;45.26;102957.38;4978567;28;20637;-93
2023/04/04 10:07:39;;;;;;;6.80;2.80;;;;;;;7.99;43.52;102932.81;4968836;28;20073;-93
2023/04/04 10:10:06;;;;;;;5.28;2.78;;;;;;;7.96;44.65;102937.91;4978840;28;20477;-93
2023/04/04 10:12:31;;;;;;;7.03;3.00;;;;;;;7.93;46.28;102941.28;4962107;28;20031;-92
2023/04/04 10:15:01;;;;;;;6.05;2.90;;;;;;;8.05;46.97;102956.19;4981477;28;20026;-93
2023/04/04 10:17:35;;;;;;;7.47;3.00;;;;;;;8.00;46.62;102932.84;4979552;28;20033;-92
2023/04/04 10:20:05;;;;;;;5.55;2.92;;;;;;;8.10;45.38;102928.75;4995597;28;20022;-93
2023/04/04 10:22:32;;;;;;;6.72;2.75;;;;;;;8.19;45.05;102947.84;4981168;28;20166;-93
2023/04/04 10:24:58;;;;;;;6.05;2.80;;;;;;;8.01;45.68;102936.28;4978440;28;20145;-94
2023/04/04 10:27:24;;;;;;;8.70;3.03;;;;;;;8.04;48.06;102936.38;4980376;28;20109;-93
2023/04/04 10:29:50;;;;;;;6.93;3.15;;;;;;;8.09;46.90;102932.16;4980926;28;20038;-94
2023/04/04 10:32:23;;;;;;;5.30;3.05;;;;;;;8.13;45.43;102927.06;4980422;28;20026;-94
2023/04/04 10:34:59;;;;;;;6.25;2.97;;;;;;;8.25;45.79;102935.09;4980120;28;20077;-94
2023/04/04 10:37:30;;;;;;;7.05;2.85;;;;;;;8.25;47.52;102913.56;4980501;28;20461;-92
2023/04/04 10:40:09;;;;;;;6.50;2.95;;;;;;;8.23;46.17;102912.63;4977546;28;20364;-93
2023/04/04 10:42:46;;;;;;;7.88;3.17;;;;;;;8.23;46.39;102916.09;4979101;28;20034;-94
2023/04/04 10:45:17;;;;;;;5.30;3.03;;;;;;;8.26;46.93;102925.59;4980392;28;20026;-94
2023/04/04 10:47:43;;;;;;;6.18;2.97;;;;;;;8.29;45.07;102936.00;4978522;28;20034;-94
2023/04/04 10:50:15;;;;;;;6.75;2.95;;;;;;;8.16;47.31;102932.31;4979570;28;20042;-95
2023/04/04 10:52:45;;;;;;;9.40;2.83;;;;;;;8.05;44.90;102909.72;4979094;28;20042;-94
2023/04/04 10:55:12;;;;;;;9.48;3.30;;;;;;;8.02;44.55;102904.47;4977721;28;20034;-94
2023/04/04 10:57:51;;;;;;;8.57;3.00;;;;;;;7.97;46.72;102904.38;4977611;28;20065;-94
2023/04/04 11:00:19;;;;;;;7.55;3.10;;;;;;;8.08;47.30;102909.75;4966127;28;20479;-95
2023/04/04 11:02:56;;;;;;;9.30;3.03;;;;;;;8.14;45.49;102912.44;4980411;28;20033;-94
2023/04/04 11:05:46;;;;;;;4.13;3.08;;;;;;;8.14;47.76;102918.50;4978234;28;20022;-92
2023/04/04 11:08:18;;;;;;;7.55;3.30;;;;;;;8.08;46.98;102891.66;4978325;28;20407;-93
2023/04/04 11:10:47;;;;;;;7.28;3.50;;;;;;;8.28;46.28;102916.16;4979912;28;20258;-92
2023/04/04 11:13:24;;;;;;;7.10;3.45;;;;;;;8.35;47.01;102888.78;4978677;28;20086;-93
2023/04/04 11:16:16;;;;;;;7.28;3.25;;;;;;;8.41;44.91;102894.91;4966803;28;20117;-94
2023/04/04 11:18:42;;;;;;;10.02;3.47;;;;;;;8.35;46.10;102887.06;4965903;28;20030;-92
2023/04/04 11:21:18;;;;;;;6.22;3.20;;;;;;;8.28;45.21;102880.88;4993524;28;20026;-92
2023/04/04 11:23:47;;;;;;;7.30;3.20;;;;;;;8.30;47.62;102881.81;4966454;28;20674;-95